Latest Weather Observations for Paraburdoo

IDW60801

Issued at 10:02 pm WST Thursday 29 January 2015 (issued every 30 minutes, with the page automatically refreshed every 10 minutes)

About weather observations | Map of weather stations | Latest weather observations for WA | Other Formats
Station Details ID: 007185 Name: PARABURDOO AERO Lat: -23.17 Lon: 117.75 Height: 423.7 m
Data from the previous 72 hours. | See also: Recent months at Paraburdoo
Date/Time
WST
Temp
°C
App
Temp
°C
Dew
Point
Rel
Hum
%
Delta-T
°C
Wind Press
QNH
hPa
Press
MSL
hPa
Rain
since 9 am
mm
Dir
 
Spd
km/h
Gust
km/h
Spd
kts
Gust
kts
29/10:00pm 25.1 25.6 20.1 74 3.3 ENE 17 24 9 13 1008.3 1004.5 6.8
29/09:30pm 25.1 26.6 22.0 83 2.1 NE 17 22 9 12 1008.5 1004.8 6.8
29/09:00pm 25.1 25.0 21.4 80 2.5 ENE 24 30 13 16 1007.5 1003.7 6.8
29/08:30pm 25.3 25.0 22.6 85 1.8 ENE 28 35 15 19 1007.6 1003.8 6.8
29/08:00pm 25.0 25.1 23.2 90 1.2 ENE 28 43 15 23 1007.6 1003.8 6.8
29/07:30pm 24.7 22.6 23.8 95 0.6 ENE 41 56 22 30 1005.9 1002.1 6.8
29/07:17pm 24.6 23.9 24.1 97 0.3 NE 35 52 19 28 1005.8 1002.0 6.8
29/07:00pm 24.5 25.9 24.2 98 0.2 NE 24 32 13 17 1007.9 1004.1 6.6
29/06:30pm 24.5 25.5 24.2 98 0.2 N 26 35 14 19 1007.0 1003.2 6.0
29/06:13pm 24.2 26.4 23.9 98 0.2 NNE 19 24 10 13 1007.0 1003.2 5.8
29/06:01pm 23.7 25.5 23.5 99 0.1 NNE 20 24 11 13 1007.1 1003.3 5.4
29/06:00pm 23.8 25.6 23.6 99 0.1 NE 20 24 11 13 1007.1 1003.3 5.4
29/05:30pm 24.6 26.4 24.3 98 0.2 ESE 22 30 12 16 1006.9 1003.1 3.4
29/05:20pm 23.9 24.6 23.7 99 0.1 ESE 26 43 14 23 1006.6 1002.8 3.4
29/05:07pm 22.5 21.3 22.3 99 0.1 SSE 32 74 17 40 1005.9 1002.1 3.4
29/05:00pm 24.6 22.5 24.3 98 0.2 SSW 43 96 23 52 1004.9 1001.1 3.0
29/04:56pm 23.1 18.4 17.8 72 3.4 S 39 96 21 52 1004.6 1000.8 1.2
29/04:54pm 29.3 26.0 18.4 51 7.1 S 33 54 18 29 1004.9 1001.1 0.0
29/04:47pm 31.1 28.1 16.7 42 9.2 SE 28 48 15 26 1004.4 1000.6 0.0
29/04:42pm 32.2 29.3 16.1 38 10.3 E 26 44 14 24 1004.0 1000.1 0.0
29/04:30pm 37.4 34.5 15.2 26 14.2 NNE 24 35 13 19 1002.7 998.9 0.0
29/04:00pm 37.3 33.1 15.7 27 13.9 NE 32 43 17 23 1002.7 998.9 0.0
29/03:59pm 37.2 33.0 15.6 27 13.9 NE 32 43 17 23 1002.8 999.0 0.0
29/03:43pm 36.4 31.7 14.4 27 13.9 NE 32 52 17 28 1003.3 999.5 0.0
29/03:30pm 38.5 35.1 13.7 23 15.6 NE 24 32 13 17 1003.2 999.4 0.0
29/03:00pm 36.8 34.3 13.5 24 14.6 N 19 32 10 17 1003.8 999.9 0.0
29/02:30pm 40.7 37.6 11.7 18 17.9 WSW 19 32 10 17 1003.3 999.5 0.0
29/02:00pm 38.5 36.4 13.7 23 15.6 SW 17 28 9 15 1004.1 1000.3 0.0
29/01:30pm 39.3 37.7 15.0 24 15.6 WSW 17 33 9 18 1004.7 1000.9 0.0
29/01:00pm 38.2 37.0 14.1 24 15.3 SW 13 26 7 14 1005.4 1001.6 0.0
29/12:30pm 38.5 36.5 15.0 25 15.0 WNW 19 28 10 15 1006.2 1002.3 0.0
29/12:00pm 38.2 37.9 16.5 28 14.2 WSW 13 20 7 11 1006.5 1002.7 0.0
29/11:30am 36.8 36.9 16.4 30 13.2 W 11 20 6 11 1007.1 1003.3 0.0
29/11:00am 35.4 35.2 15.7 31 12.6 WSW 11 17 6 9 1007.5 1003.7 0.0
29/10:30am 35.1 35.5 16.4 32 12.1 E 9 17 5 9 1007.8 1004.0 0.0
29/10:00am 33.8 33.9 16.6 35 11.1 ENE 11 17 6 9 1008.1 1004.3 0.0
29/09:30am 33.4 34.1 17.1 37 10.6 NE 9 17 5 9 1008.5 1004.8 0.0
29/09:00am 31.7 32.5 17.2 42 9.4 NE 9 15 5 8 1008.7 1004.9 0.0
29/08:30am 31.4 31.7 18.0 44 8.7 N 13 19 7 10 1008.4 1004.7 0.0
29/08:00am 30.7 31.5 18.1 47 8.2 N 11 19 6 10 1008.4 1004.7 0.0
29/07:30am 30.1 31.3 18.2 49 7.8 N 9 13 5 7 1008.3 1004.5 0.0
29/07:00am 29.5 31.1 18.3 51 7.3 NNE 7 9 4 5 1008.2 1004.4 0.0
29/06:30am 28.4 30.0 18.2 54 6.6 NNE 7 9 4 5 1007.5 1003.7 0.0
29/06:00am 27.9 29.0 18.0 55 6.4 N 9 11 5 6 1006.9 1003.1 0.0
29/05:30am 28.0 30.0 17.8 54 6.6 N 4 6 2 3 1006.5 1002.7 0.0
29/05:00am 28.0 28.8 17.2 52 6.9 NNW 9 13 5 7 1006.0 1002.2 0.0
29/04:30am 28.2 29.1 16.5 49 7.4 NNW 7 9 4 5 1005.7 1001.9 0.0
29/04:00am 28.2 30.2 16.1 47 7.6 CALM 0 4 0 2 1005.4 1001.6 0.0
29/03:30am 28.7 29.5 16.3 47 7.8 ENE 7 9 4 5 1005.2 1001.4 0.0
29/03:00am 29.1 29.5 16.3 46 8.1 ESE 9 13 5 7 1005.2 1001.4 0.0
29/02:30am 29.2 29.1 16.0 44 8.3 SE 11 17 6 9 1005.2 1001.4 0.0
29/02:00am 29.6 28.3 15.7 43 8.8 ESE 17 22 9 12 1005.3 1001.5 0.0
29/01:30am 30.0 29.4 15.7 42 9.0 ESE 13 17 7 9 1005.4 1001.6 0.0
29/01:00am 30.4 29.1 15.7 41 9.3 ESE 17 24 9 13 1005.4 1001.6 0.0
29/12:30am 31.7 30.3 14.4 35 10.8 E 15 24 8 13 1005.7 1001.9 0.0
29/12:00am 33.3 31.4 12.9 29 12.5 ESE 15 20 8 11 1005.7 1001.9 0.0
 
Date/Time
WST
Temp
°C
App
Temp
°C
Dew
Point
Rel
Hum
%
Delta-T
°C
Wind Press
QNH
hPa
Press
MSL
hPa
Rain
since 9 am
mm
Dir
 
Spd
km/h
Gust
km/h
Spd
kts
Gust
kts
28/11:30pm 33.7 31.1 12.1 27 13.0 SE 17 20 9 11 1005.6 1001.8 0.0
28/11:00pm 33.7 31.7 11.5 26 13.3 S 13 17 7 9 1005.5 1001.7 0.0
28/10:30pm 34.4 32.1 10.3 23 14.2 SSW 13 17 7 9 1005.4 1001.6 0.0
28/10:00pm 33.9 32.7 11.7 26 13.4 W 9 11 5 6 1005.2 1001.4 0.0
28/09:30pm 34.7 33.4 11.2 24 14.1 W 9 13 5 7 1005.2 1001.4 0.0
28/09:00pm 35.3 34.3 11.0 23 14.6 WNW 7 9 4 5 1005.2 1001.4 0.0
28/08:30pm 35.8 34.2 11.4 23 14.7 WNW 11 15 6 8 1005.0 1001.2 0.0
28/08:00pm 36.6 35.1 10.7 21 15.5 W 9 13 5 7 1004.7 1000.9 0.0
28/07:30pm 36.7 35.6 10.8 21 15.5 NNW 7 11 4 6 1004.3 1000.5 0.0
28/07:00pm 37.7 35.1 9.3 18 16.8 W 13 19 7 10 1004.1 1000.3 0.0
28/06:30pm 38.2 35.7 8.0 16 17.5 WSW 11 15 6 8 1003.8 999.9 0.0
28/06:00pm 38.6 35.7 8.3 16 17.7 SW 13 22 7 12 1003.7 999.8 0.0
28/05:30pm 39.2 37.1 9.7 17 17.6 WSW 11 19 6 10 1003.4 999.6 0.0
28/05:00pm 39.1 35.2 9.6 17 17.6 SW 20 30 11 16 1003.2 999.4 0.0
28/04:30pm 39.3 36.1 9.8 17 17.6 WSW 17 32 9 17 1003.2 999.4 0.0
28/04:00pm 38.9 36.9 10.3 18 17.2 SSW 11 24 6 13 1003.5 999.7 0.0
28/03:30pm 38.7 35.9 10.1 18 17.1 SW 15 28 8 15 1004.0 1000.1 0.0
28/03:00pm 38.9 36.8 11.1 19 16.9 NNW 13 22 7 12 1004.3 1000.5 0.0
28/02:30pm 39.5 38.3 11.6 19 17.1 WSW 9 28 5 15 1004.7 1000.9 0.0
28/02:00pm 37.3 35.4 10.6 20 16.0 SSE 11 20 6 11 1005.1 1001.3 0.0
28/01:30pm 37.3 35.6 11.3 21 15.7 W 11 17 6 9 1005.6 1001.8 0.0
28/01:00pm 37.7 35.2 10.9 20 16.2 NW 15 28 8 15 1005.9 1002.1 0.0
28/12:30pm 36.8 34.8 11.6 22 15.3 NW 13 20 7 11 1006.4 1002.6 0.0
28/12:00pm 36.9 36.5 13.0 24 14.8 WSW 7 17 4 9 1006.9 1003.1 0.0
28/11:30am 35.6 35.1 12.5 24 14.1 WSW 7 15 4 8 1007.3 1003.5 0.0
28/11:00am 34.0 33.6 14.0 30 12.5 NW 9 15 5 8 1007.8 1004.0 0.0
28/10:30am 33.7 33.9 14.7 32 11.9 WSW 7 11 4 6 1008.3 1004.5 0.0
28/10:00am 32.5 33.0 15.5 36 10.8 NNE 7 15 4 8 1008.5 1004.8 0.0
28/09:30am 31.2 32.0 16.4 41 9.4 NNW 7 11 4 6 1008.9 1005.1 0.0
28/09:00am 30.2 31.1 16.2 42 8.9 W 6 9 3 5 1008.8 1005.0 0.0
28/08:30am 29.6 30.8 16.8 46 8.2 N 6 13 3 7 1008.7 1004.9 0.0
28/08:00am 28.9 29.9 16.8 48 7.7 SW 7 11 4 6 1008.8 1005.0 0.0
28/07:30am 28.2 28.9 17.1 51 7.1 W 9 13 5 7 1008.7 1004.9 0.0
28/07:00am 27.6 28.1 17.5 54 6.5 WNW 11 15 6 8 1008.1 1004.3 0.0
28/06:30am 27.0 27.5 17.5 56 6.1 WNW 11 15 6 8 1007.7 1003.9 0.0
28/06:00am 26.6 28.0 17.7 58 5.7 WSW 7 9 4 5 1007.4 1003.6 0.0
28/05:30am 26.7 27.2 17.5 57 5.9 WNW 11 15 6 8 1006.8 1003.0 0.0
28/05:00am 27.0 27.9 17.5 56 6.1 WNW 9 13 5 7 1006.7 1002.9 0.0
28/04:30am 27.2 27.7 17.4 55 6.3 WNW 11 13 6 7 1006.6 1002.8 0.0
28/04:00am 27.4 27.4 17.3 54 6.5 NW 13 19 7 10 1006.4 1002.6 0.0
28/03:30am 27.8 27.3 17.0 51 6.9 WNW 15 20 8 11 1006.4 1002.6 0.0
28/03:00am 28.1 27.5 16.7 50 7.2 NW 15 20 8 11 1006.0 1002.2 0.0
28/02:30am 28.5 27.0 16.4 48 7.6 WNW 19 22 10 12 1005.9 1002.1 0.0
28/02:00am 29.0 27.5 15.2 43 8.6 WNW 17 20 9 11 1005.9 1002.1 0.0
28/01:30am 29.6 27.7 14.2 39 9.5 WNW 17 22 9 12 1006.0 1002.2 0.0
28/01:00am 30.3 28.1 10.8 30 11.4 W 13 19 7 10 1006.0 1002.2 0.0
28/12:30am 30.4 28.7 9.8 28 11.8 W 9 9 5 5 1006.3 1002.5 0.0
28/12:00am 31.2 29.4 9.4 26 12.5 W 9 11 5 6 1006.4 1002.6 0.0
 
Date/Time
WST
Temp
°C
App
Temp
°C
Dew
Point
Rel
Hum
%
Delta-T
°C
Wind Press
QNH
hPa
Press
MSL
hPa
Rain
since 9 am
mm
Dir
 
Spd
km/h
Gust
km/h
Spd
kts
Gust
kts
27/11:30pm 31.2 29.4 9.4 26 12.5 NW 9 13 5 7 1006.3 1002.5 0.0
27/11:00pm 32.0 29.7 8.9 24 13.2 NW 11 15 6 8 1006.6 1002.8 0.0
27/10:30pm 32.5 30.1 8.7 23 13.6 WNW 11 15 6 8 1006.6 1002.8 0.0
27/10:00pm 33.3 29.8 8.7 22 14.1 W 17 20 9 11 1006.5 1002.7 0.0
27/09:30pm 33.6 30.2 9.0 22 14.2 W 17 22 9 12 1006.5 1002.7 0.0
27/09:00pm 34.2 30.9 9.4 22 14.5 W 17 22 9 12 1006.3 1002.5 0.0
27/08:30pm 34.7 30.5 9.9 22 14.6 W 22 30 12 16 1005.8 1002.0 0.0
27/08:00pm 35.3 32.8 12.3 25 14.1 WNW 17 24 9 13 1005.5 1001.7 0.0
27/07:30pm 35.7 32.7 12.6 25 14.2 NW 20 24 11 13 1005.1 1001.3 0.0
27/07:00pm 36.1 33.0 12.3 24 14.6 NW 20 26 11 14 1004.8 1001.0 0.0
27/06:30pm 36.7 33.8 12.2 23 15.0 NW 19 26 10 14 1004.5 1000.7 0.0
27/06:00pm 37.2 33.2 11.9 22 15.5 NW 24 32 13 17 1004.3 1000.5 0.0
27/05:30pm 37.7 33.6 11.6 21 15.9 NW 24 30 13 16 1004.1 1000.3 0.0
27/05:00pm 38.2 34.3 12.0 21 16.1 WNW 24 33 13 18 1004.1 1000.3 0.0
27/04:30pm 38.2 34.8 11.3 20 16.3 NW 20 32 11 17 1004.0 1000.1 0.0
27/04:00pm 38.2 34.9 12.7 21 15.8 NW 22 33 12 18 1004.0 1000.1 0.0
27/03:30pm 39.0 36.2 12.7 21 16.3 WNW 19 33 10 18 1004.4 1000.6 0.0
27/03:00pm 38.6 35.4 13.1 22 16.0 WNW 22 37 12 20 1004.7 1000.9 0.0
27/02:30pm 37.9 35.3 13.8 23 15.1 NW 20 35 11 19 1005.0 1001.2 0.0
27/02:00pm 37.3 35.2 15.2 27 14.2 NW 20 37 11 20 1005.2 1001.4 0.0
27/01:30pm 37.5 36.5 14.7 25 14.5 WNW 13 24 7 13 1005.4 1001.6 0.0
27/01:00pm 36.5 35.3 16.1 29 13.2 NNW 17 26 9 14 1005.8 1002.0 0.0
27/12:30pm 36.5 35.9 16.6 30 12.9 NNW 15 26 8 14 1006.4 1002.6 0.0
27/12:00pm 36.1 34.6 16.3 31 12.8 NNW 19 30 10 16 1006.9 1003.1 0.0
27/11:30am 35.6 35.9 17.8 35 11.7 NE 13 32 7 17 1007.1 1003.3 0.0
27/11:00am 33.7 34.0 17.8 38 10.4 ENE 13 24 7 13 1007.6 1003.8 0.0
27/10:30am 33.8 33.7 17.9 38 10.4 NE 15 26 8 14 1008.0 1004.2 0.0
27/10:00am 32.9 32.8 18.7 43 9.4 NNE 17 28 9 15 1008.4 1004.7 0.0
27/09:30am 32.6 32.3 19.5 46 8.8 NE 20 28 11 15 1008.7 1004.9 0.0
27/09:00am 31.5 30.1 18.8 46 8.4 NE 24 33 13 18 1008.7 1004.9 0.0
27/08:30am 31.2 30.9 19.2 48 8.0 ENE 19 30 10 16 1008.8 1005.0 0.0
27/08:00am 30.2 30.6 19.9 54 6.9 NNE 17 24 9 13 1008.7 1004.9 0.0
27/07:30am 29.7 30.8 19.7 55 6.6 ENE 13 19 7 10 1008.5 1004.8 0.0
27/07:00am 28.8 29.8 18.6 54 6.7 ENE 11 15 6 8 1008.5 1004.8 0.0
27/06:30am 27.5 29.0 18.8 59 5.7 NE 9 15 5 8 1008.2 1004.4 0.0
27/06:00am 26.1 28.1 19.2 65 4.5 E 7 9 4 5 1008.2 1004.4 0.0
27/05:30am 26.4 27.9 18.8 63 4.9 E 9 9 5 5 1007.9 1004.1 0.0
27/05:00am 26.5 27.5 17.8 58 5.6 ESE 9 11 5 6 1007.7 1003.9 0.0
27/04:30am 26.8 28.1 17.0 55 6.2 ESE 6 7 3 4 1007.7 1003.9 0.0
27/04:00am 27.9 29.5 16.8 50 7.1 NNW 4 7 2 4 1007.5 1003.7 0.0
27/03:30am 28.1 30.5 17.0 51 7.1 CALM 0 6 0 3 1007.5 1003.7 0.0
27/03:00am 28.7 29.2 16.6 48 7.7 WNW 9 13 5 7 1007.4 1003.6 0.0
27/02:30am 29.2 28.6 16.7 46 8.0 WNW 15 20 8 11 1007.1 1003.3 0.0
27/02:00am 29.7 29.0 16.5 45 8.4 W 15 20 8 11 1006.9 1003.1 0.0
27/01:30am 30.1 29.1 17.5 46 8.1 WNW 19 26 10 14 1006.9 1003.1 0.0
27/01:00am 30.6 28.3 17.7 46 8.4 WNW 26 39 14 21 1006.9 1003.1 0.0
27/12:30am 30.8 29.8 18.8 48 7.9 WNW 22 32 12 17 1006.9 1003.1 0.0
27/12:00am 31.2 30.0 19.2 48 8.0 WNW 24 32 13 17 1006.9 1003.1 0.0
 
Date/Time
WST
Temp
°C
App
Temp
°C
Dew
Point
Rel
Hum
%
Delta-T
°C
Wind Press
QNH
hPa
Press
MSL
hPa
Rain
since 9 am
mm
Dir
 
Spd
km/h
Gust
km/h
Spd
kts
Gust
kts
26/11:30pm 31.5 30.0 19.5 49 8.0 WNW 26 35 14 19 1007.0 1003.2 0.0
26/11:00pm 32.1 30.2 19.4 47 8.5 NW 28 35 15 19 1007.0 1003.2 0.0
26/10:30pm 32.8 29.9 19.3 45 9.0 WNW 33 41 18 22 1007.0 1003.2 0.0

Other Formats:

Comma delimited format used in spreadsheet applications
http://www.bom.gov.au/fwo/IDW60801/IDW60801.94316.axf

JavaScript Object Notation format (JSON) in row-major order
http://www.bom.gov.au/fwo/IDW60801/IDW60801.94316.json